sensor_id;sensor_type;location;lat;lon;timestamp;P1;P2;P0
72307;PMS5003;60257;42.638;23.376;2022-11-20T00:00:28;25.67;25.67;16.33
72307;PMS5003;60257;42.638;23.376;2022-11-20T00:02:53;18.00;18.00;14.00
72307;PMS5003;60257;42.638;23.376;2022-11-20T00:05:19;28.00;24.33;15.67
72307;PMS5003;60257;42.638;23.376;2022-11-20T00:07:45;31.00;28.00;18.67
72307;PMS5003;60257;42.638;23.376;2022-11-20T00:10:11;26.00;24.67;15.67
72307;PMS5003;60257;42.638;23.376;2022-11-20T00:12:37;26.33;24.67;17.33
72307;PMS5003;60257;42.638;23.376;2022-11-20T00:15:03;22.67;22.67;14.33
72307;PMS5003;60257;42.638;23.376;2022-11-20T00:17:28;27.33;26.33;16.67
72307;PMS5003;60257;42.638;23.376;2022-11-20T00:19:54;23.33;20.67;14.67
72307;PMS5003;60257;42.638;23.376;2022-11-20T00:22:19;16.67;16.00;12.33
72307;PMS5003;60257;42.638;23.376;2022-11-20T00:24:45;20.33;20.33;14.67
72307;PMS5003;60257;42.638;23.376;2022-11-20T00:27:10;19.33;18.33;12.67
72307;PMS5003;60257;42.638;23.376;2022-11-20T00:29:36;14.67;14.00;9.67
72307;PMS5003;60257;42.638;23.376;2022-11-20T00:32:01;14.75;14.75;9.50
72307;PMS5003;60257;42.638;23.376;2022-11-20T00:34:26;14.25;13.00;8.75
72307;PMS5003;60257;42.638;23.376;2022-11-20T00:36:52;13.50;13.50;9.00
72307;PMS5003;60257;42.638;23.376;2022-11-20T00:39:17;13.75;12.50;7.00
72307;PMS5003;60257;42.638;23.376;2022-11-20T00:41:43;8.00;8.00;6.00
72307;PMS5003;60257;42.638;23.376;2022-11-20T00:44:08;10.75;8.00;6.00
72307;PMS5003;60257;42.638;23.376;2022-11-20T00:46:34;9.75;9.75;5.00
72307;PMS5003;60257;42.638;23.376;2022-11-20T00:48:59;11.25;9.50;6.75
72307;PMS5003;60257;42.638;23.376;2022-11-20T00:51:25;10.75;10.25;5.75
72307;PMS5003;60257;42.638;23.376;2022-11-20T00:53:54;10.50;10.50;7.00
72307;PMS5003;60257;42.638;23.376;2022-11-20T00:56:20;11.50;10.25;7.00
72307;PMS5003;60257;42.638;23.376;2022-11-20T00:58:47;13.25;12.75;8.00
72307;PMS5003;60257;42.638;23.376;2022-11-20T01:01:15;10.25;9.25;6.00
72307;PMS5003;60257;42.638;23.376;2022-11-20T01:03:47;13.00;11.25;7.00
72307;PMS5003;60257;42.638;23.376;2022-11-20T01:06:18;10.00;9.00;5.75
72307;PMS5003;60257;42.638;23.376;2022-11-20T01:08:53;7.25;7.00;3.00
72307;PMS5003;60257;42.638;23.376;2022-11-20T01:11:21;5.00;4.25;4.00
72307;PMS5003;60257;42.638;23.376;2022-11-20T01:13:49;9.50;9.50;6.00
72307;PMS5003;60257;42.638;23.376;2022-11-20T01:16:23;13.00;11.00;6.25
72307;PMS5003;60257;42.638;23.376;2022-11-20T01:18:51;9.00;9.00;6.25
72307;PMS5003;60257;42.638;23.376;2022-11-20T01:21:19;10.25;9.50;6.25
72307;PMS5003;60257;42.638;23.376;2022-11-20T01:23:47;7.25;7.25;4.25
72307;PMS5003;60257;42.638;23.376;2022-11-20T01:26:24;9.75;8.50;6.00
72307;PMS5003;60257;42.638;23.376;2022-11-20T01:28:51;7.25;7.25;4.50
72307;PMS5003;60257;42.638;23.376;2022-11-20T01:33:44;4.75;4.25;1.00
72307;PMS5003;60257;42.638;23.376;2022-11-20T01:36:11;10.00;9.00;7.00
72307;PMS5003;60257;42.638;23.376;2022-11-20T01:38:37;10.50;10.50;7.00
72307;PMS5003;60257;42.638;23.376;2022-11-20T01:41:03;8.50;8.50;5.00
72307;PMS5003;60257;42.638;23.376;2022-11-20T01:43:29;6.00;6.00;4.00
72307;PMS5003;60257;42.638;23.376;2022-11-20T01:46:06;9.00;9.00;6.25
72307;PMS5003;60257;42.638;23.376;2022-11-20T01:51:21;13.75;11.50;7.50
72307;PMS5003;60257;42.638;23.376;2022-11-20T01:54:05;11.00;9.75;5.50
72307;PMS5003;60257;42.638;23.376;2022-11-20T01:56:38;7.75;7.75;6.75
72307;PMS5003;60257;42.638;23.376;2022-11-20T01:59:08;9.75;9.00;5.25
72307;PMS5003;60257;42.638;23.376;2022-11-20T02:01:35;9.50;9.50;4.50
72307;PMS5003;60257;42.638;23.376;2022-11-20T02:04:01;9.00;7.75;5.75
72307;PMS5003;60257;42.638;23.376;2022-11-20T02:06:32;13.25;10.50;6.75
72307;PMS5003;60257;42.638;23.376;2022-11-20T02:09:01;7.25;7.25;5.00
72307;PMS5003;60257;42.638;23.376;2022-11-20T02:11:27;4.25;4.25;3.50
72307;PMS5003;60257;42.638;23.376;2022-11-20T02:13:52;8.75;7.00;6.00
72307;PMS5003;60257;42.638;23.376;2022-11-20T02:16:23;7.50;7.50;6.00
72307;PMS5003;60257;42.638;23.376;2022-11-20T02:19:12;6.50;5.75;3.00
72307;PMS5003;60257;42.638;23.376;2022-11-20T02:24:44;7.50;7.50;4.75
72307;PMS5003;60257;42.638;23.376;2022-11-20T02:27:14;5.00;5.00;3.75
72307;PMS5003;60257;42.638;23.376;2022-11-20T02:29:53;7.75;6.25;4.50
72307;PMS5003;60257;42.638;23.376;2022-11-20T02:32:27;6.00;5.50;2.25
72307;PMS5003;60257;42.638;23.376;2022-11-20T02:34:55;3.50;2.25;2.00
72307;PMS5003;60257;42.638;23.376;2022-11-20T02:37:21;2.00;2.00;2.00
72307;PMS5003;60257;42.638;23.376;2022-11-20T02:39:49;2.25;2.25;1.75
72307;PMS5003;60257;42.638;23.376;2022-11-20T02:42:16;2.25;2.25;1.75
72307;PMS5003;60257;42.638;23.376;2022-11-20T02:44:42;2.00;2.00;1.00
72307;PMS5003;60257;42.638;23.376;2022-11-20T02:47:08;2.25;2.25;1.00
72307;PMS5003;60257;42.638;23.376;2022-11-20T02:49:33;2.00;2.00;1.00
72307;PMS5003;60257;42.638;23.376;2022-11-20T02:51:59;3.00;3.00;1.75
72307;PMS5003;60257;42.638;23.376;2022-11-20T02:54:24;2.50;2.50;1.50
72307;PMS5003;60257;42.638;23.376;2022-11-20T02:56:50;2.50;2.25;1.25
72307;PMS5003;60257;42.638;23.376;2022-11-20T02:59:16;2.00;1.00;1.00
72307;PMS5003;60257;42.638;23.376;2022-11-20T03:01:41;2.00;2.00;1.25
72307;PMS5003;60257;42.638;23.376;2022-11-20T03:04:07;2.25;2.25;2.00
72307;PMS5003;60257;42.638;23.376;2022-11-20T03:06:32;2.00;2.00;2.00
72307;PMS5003;60257;42.638;23.376;2022-11-20T03:08:58;3.00;3.00;2.00
72307;PMS5003;60257;42.638;23.376;2022-11-20T03:11:23;3.25;3.25;1.00
72307;PMS5003;60257;42.638;23.376;2022-11-20T03:13:49;3.25;3.25;2.75
72307;PMS5003;60257;42.638;23.376;2022-11-20T03:16:16;1.50;1.50;1.00
72307;PMS5003;60257;42.638;23.376;2022-11-20T03:18:43;3.50;3.50;1.75
72307;PMS5003;60257;42.638;23.376;2022-11-20T03:21:09;4.00;2.75;2.00
72307;PMS5003;60257;42.638;23.376;2022-11-20T03:23:37;3.75;2.50;1.50
72307;PMS5003;60257;42.638;23.376;2022-11-20T03:26:07;1.00;1.00;0.00
72307;PMS5003;60257;42.638;23.376;2022-11-20T03:29:17;2.00;2.00;1.00
72307;PMS5003;60257;42.638;23.376;2022-11-20T03:31:36;4.75;2.00;1.00
72307;PMS5003;60257;42.638;23.376;2022-11-20T03:34:05;3.00;3.00;2.00
72307;PMS5003;60257;42.638;23.376;2022-11-20T03:36:32;3.00;2.75;1.25
72307;PMS5003;60257;42.638;23.376;2022-11-20T03:38:58;2.00;2.00;1.00
72307;PMS5003;60257;42.638;23.376;2022-11-20T03:41:28;1.00;1.00;0.25
72307;PMS5003;60257;42.638;23.376;2022-11-20T03:43:56;2.00;2.00;1.00
72307;PMS5003;60257;42.638;23.376;2022-11-20T03:46:27;1.50;1.50;1.00
72307;PMS5003;60257;42.638;23.376;2022-11-20T03:48:53;3.25;2.00;1.00
72307;PMS5003;60257;42.638;23.376;2022-11-20T03:51:20;2.50;2.50;2.00
72307;PMS5003;60257;42.638;23.376;2022-11-20T03:53:49;2.00;2.00;1.00
72307;PMS5003;60257;42.638;23.376;2022-11-20T03:56:17;4.00;4.00;1.00
72307;PMS5003;60257;42.638;23.376;2022-11-20T03:58:43;2.50;2.50;1.00
72307;PMS5003;60257;42.638;23.376;2022-11-20T04:01:10;3.25;2.25;1.00
72307;PMS5003;60257;42.638;23.376;2022-11-20T04:03:38;4.00;2.00;1.00
72307;PMS5003;60257;42.638;23.376;2022-11-20T04:06:06;3.25;3.25;1.25
72307;PMS5003;60257;42.638;23.376;2022-11-20T04:08:36;3.00;3.00;2.00
72307;PMS5003;60257;42.638;23.376;2022-11-20T04:11:18;5.50;3.00;1.00
72307;PMS5003;60257;42.638;23.376;2022-11-20T04:13:47;2.25;2.00;1.00
72307;PMS5003;60257;42.638;23.376;2022-11-20T04:16:39;3.75;3.75;2.00
72307;PMS5003;60257;42.638;23.376;2022-11-20T04:19:06;2.50;2.50;2.00
72307;PMS5003;60257;42.638;23.376;2022-11-20T04:21:35;2.00;2.00;1.00
72307;PMS5003;60257;42.638;23.376;2022-11-20T04:24:01;2.00;2.00;1.00
72307;PMS5003;60257;42.638;23.376;2022-11-20T04:26:27;3.00;1.00;1.00
72307;PMS5003;60257;42.638;23.376;2022-11-20T04:28:54;1.00;1.00;1.00
72307;PMS5003;60257;42.638;23.376;2022-11-20T04:31:20;1.00;1.00;1.00
72307;PMS5003;60257;42.638;23.376;2022-11-20T04:33:47;2.00;2.00;1.00
72307;PMS5003;60257;42.638;23.376;2022-11-20T04:36:14;3.00;3.00;1.00
72307;PMS5003;60257;42.638;23.376;2022-11-20T04:38:40;1.50;1.50;1.00
72307;PMS5003;60257;42.638;23.376;2022-11-20T04:41:08;3.00;3.00;3.00
72307;PMS5003;60257;42.638;23.376;2022-11-20T04:43:39;2.50;2.50;1.50
72307;PMS5003;60257;42.638;23.376;2022-11-20T04:46:04;4.75;2.00;1.00
72307;PMS5003;60257;42.638;23.376;2022-11-20T04:48:30;2.50;2.00;1.25
72307;PMS5003;60257;42.638;23.376;2022-11-20T04:50:55;1.25;1.00;0.00
72307;PMS5003;60257;42.638;23.376;2022-11-20T04:53:21;1.75;1.75;1.00
72307;PMS5003;60257;42.638;23.376;2022-11-20T04:55:48;2.75;2.75;1.75
72307;PMS5003;60257;42.638;23.376;2022-11-20T04:58:14;2.75;2.75;2.00
72307;PMS5003;60257;42.638;23.376;2022-11-20T05:00:40;3.00;3.00;2.00
72307;PMS5003;60257;42.638;23.376;2022-11-20T05:03:05;2.00;2.00;1.25
72307;PMS5003;60257;42.638;23.376;2022-11-20T05:05:32;2.75;2.75;1.25
72307;PMS5003;60257;42.638;23.376;2022-11-20T05:07:59;3.00;2.25;1.75
72307;PMS5003;60257;42.638;23.376;2022-11-20T05:10:25;3.50;2.75;1.00
72307;PMS5003;60257;42.638;23.376;2022-11-20T05:12:51;1.75;1.75;1.00
72307;PMS5003;60257;42.638;23.376;2022-11-20T05:15:17;2.00;2.00;1.00
72307;PMS5003;60257;42.638;23.376;2022-11-20T05:17:49;2.00;2.00;1.00
72307;PMS5003;60257;42.638;23.376;2022-11-20T05:20:16;2.75;2.75;1.00
72307;PMS5003;60257;42.638;23.376;2022-11-20T05:22:42;5.50;4.00;2.00
72307;PMS5003;60257;42.638;23.376;2022-11-20T05:25:08;2.00;2.00;2.00
72307;PMS5003;60257;42.638;23.376;2022-11-20T05:27:34;3.50;3.00;1.25
72307;PMS5003;60257;42.638;23.376;2022-11-20T05:29:59;4.00;2.00;2.00
72307;PMS5003;60257;42.638;23.376;2022-11-20T05:32:25;2.50;2.50;1.00
72307;PMS5003;60257;42.638;23.376;2022-11-20T05:34:51;2.75;2.75;1.25
72307;PMS5003;60257;42.638;23.376;2022-11-20T05:37:17;4.25;4.00;2.00
72307;PMS5003;60257;42.638;23.376;2022-11-20T05:39:42;1.75;1.00;0.00
72307;PMS5003;60257;42.638;23.376;2022-11-20T05:42:08;5.50;4.50;2.25
72307;PMS5003;60257;42.638;23.376;2022-11-20T05:44:52;4.00;3.25;2.00
72307;PMS5003;60257;42.638;23.376;2022-11-20T05:47:17;4.75;4.75;3.25
72307;PMS5003;60257;42.638;23.376;2022-11-20T05:49:43;2.50;2.00;1.00
72307;PMS5003;60257;42.638;23.376;2022-11-20T05:52:08;6.00;6.00;3.00
72307;PMS5003;60257;42.638;23.376;2022-11-20T05:54:34;4.75;4.75;2.75
72307;PMS5003;60257;42.638;23.376;2022-11-20T05:56:59;6.50;6.50;3.75
72307;PMS5003;60257;42.638;23.376;2022-11-20T05:59:25;4.75;4.75;2.75
72307;PMS5003;60257;42.638;23.376;2022-11-20T06:01:50;6.00;5.25;2.25
72307;PMS5003;60257;42.638;23.376;2022-11-20T06:04:15;4.00;4.00;2.00
72307;PMS5003;60257;42.638;23.376;2022-11-20T06:06:41;4.00;3.75;2.25
72307;PMS5003;60257;42.638;23.376;2022-11-20T06:09:06;3.50;3.50;2.00
72307;PMS5003;60257;42.638;23.376;2022-11-20T06:11:32;7.00;6.00;4.00
72307;PMS5003;60257;42.638;23.376;2022-11-20T06:13:57;3.00;3.00;1.00
72307;PMS5003;60257;42.638;23.376;2022-11-20T06:16:23;7.75;6.75;5.00
72307;PMS5003;60257;42.638;23.376;2022-11-20T06:18:48;6.50;6.50;4.00
72307;PMS5003;60257;42.638;23.376;2022-11-20T06:21:15;5.75;5.75;4.00
72307;PMS5003;60257;42.638;23.376;2022-11-20T06:23:43;3.75;3.75;2.00
72307;PMS5003;60257;42.638;23.376;2022-11-20T06:26:10;3.00;3.00;2.00
72307;PMS5003;60257;42.638;23.376;2022-11-20T06:28:38;3.00;3.00;1.50
72307;PMS5003;60257;42.638;23.376;2022-11-20T06:31:03;4.00;4.00;2.00
72307;PMS5003;60257;42.638;23.376;2022-11-20T06:33:29;4.50;4.25;2.00
72307;PMS5003;60257;42.638;23.376;2022-11-20T06:35:59;5.00;5.00;3.75
72307;PMS5003;60257;42.638;23.376;2022-11-20T06:38:25;12.25;10.00;7.00
72307;PMS5003;60257;42.638;23.376;2022-11-20T06:40:51;6.75;6.75;4.00
72307;PMS5003;60257;42.638;23.376;2022-11-20T06:43:17;4.75;4.75;3.00
72307;PMS5003;60257;42.638;23.376;2022-11-20T06:45:42;5.00;4.75;3.00
72307;PMS5003;60257;42.638;23.376;2022-11-20T06:48:08;6.75;6.50;4.00
72307;PMS5003;60257;42.638;23.376;2022-11-20T06:50:34;5.75;5.75;3.00
72307;PMS5003;60257;42.638;23.376;2022-11-20T06:53:02;8.25;8.25;6.25
72307;PMS5003;60257;42.638;23.376;2022-11-20T06:55:28;7.00;6.50;3.00
72307;PMS5003;60257;42.638;23.376;2022-11-20T06:57:54;7.50;7.50;4.00
72307;PMS5003;60257;42.638;23.376;2022-11-20T07:00:19;4.75;4.75;3.00
72307;PMS5003;60257;42.638;23.376;2022-11-20T07:02:44;6.00;4.00;2.00
72307;PMS5003;60257;42.638;23.376;2022-11-20T07:05:10;7.00;5.00;2.50
72307;PMS5003;60257;42.638;23.376;2022-11-20T07:07:35;6.00;2.75;1.50
72307;PMS5003;60257;42.638;23.376;2022-11-20T07:10:01;2.00;2.00;1.25
72307;PMS5003;60257;42.638;23.376;2022-11-20T07:12:26;4.25;2.75;1.00
72307;PMS5003;60257;42.638;23.376;2022-11-20T07:14:52;3.50;3.50;1.50
72307;PMS5003;60257;42.638;23.376;2022-11-20T07:17:17;4.25;4.00;3.00
72307;PMS5003;60257;42.638;23.376;2022-11-20T07:19:43;4.50;4.00;2.00
72307;PMS5003;60257;42.638;23.376;2022-11-20T07:22:08;14.75;14.50;12.75
72307;PMS5003;60257;42.638;23.376;2022-11-20T07:24:34;4.00;4.00;2.00
72307;PMS5003;60257;42.638;23.376;2022-11-20T07:26:59;4.50;3.50;2.00
72307;PMS5003;60257;42.638;23.376;2022-11-20T07:29:25;5.25;5.25;1.50
72307;PMS5003;60257;42.638;23.376;2022-11-20T07:31:51;15.50;14.50;9.00
72307;PMS5003;60257;42.638;23.376;2022-11-20T07:34:16;6.00;6.00;4.00
72307;PMS5003;60257;42.638;23.376;2022-11-20T07:36:42;6.50;6.50;4.00
72307;PMS5003;60257;42.638;23.376;2022-11-20T07:39:07;4.50;3.25;2.00
72307;PMS5003;60257;42.638;23.376;2022-11-20T07:41:33;6.25;5.00;3.25
72307;PMS5003;60257;42.638;23.376;2022-11-20T07:43:58;5.50;5.50;4.00
72307;PMS5003;60257;42.638;23.376;2022-11-20T07:46:23;4.00;4.00;3.00
72307;PMS5003;60257;42.638;23.376;2022-11-20T07:48:49;5.00;5.00;3.00
72307;PMS5003;60257;42.638;23.376;2022-11-20T07:51:14;7.00;7.00;3.25
72307;PMS5003;60257;42.638;23.376;2022-11-20T07:53:40;6.75;5.75;3.25
72307;PMS5003;60257;42.638;23.376;2022-11-20T07:56:05;7.25;7.25;4.50
72307;PMS5003;60257;42.638;23.376;2022-11-20T07:58:31;6.50;5.50;3.00
72307;PMS5003;60257;42.638;23.376;2022-11-20T08:01:03;6.00;5.00;4.00
72307;PMS5003;60257;42.638;23.376;2022-11-20T08:03:30;5.00;5.00;2.75
72307;PMS5003;60257;42.638;23.376;2022-11-20T08:05:58;6.00;6.00;4.00
72307;PMS5003;60257;42.638;23.376;2022-11-20T08:08:24;6.00;4.00;2.00
72307;PMS5003;60257;42.638;23.376;2022-11-20T08:10:49;7.50;5.75;3.00
72307;PMS5003;60257;42.638;23.376;2022-11-20T08:13:15;6.75;5.25;3.00
72307;PMS5003;60257;42.638;23.376;2022-11-20T08:15:58;6.75;4.75;3.00
72307;PMS5003;60257;42.638;23.376;2022-11-20T08:18:24;8.25;4.75;2.25
72307;PMS5003;60257;42.638;23.376;2022-11-20T08:20:49;5.50;3.00;2.00
72307;PMS5003;60257;42.638;23.376;2022-11-20T08:23:15;4.75;3.50;2.75
72307;PMS5003;60257;42.638;23.376;2022-11-20T08:25:40;6.75;5.75;4.00
72307;PMS5003;60257;42.638;23.376;2022-11-20T08:28:07;5.00;5.00;3.00
72307;PMS5003;60257;42.638;23.376;2022-11-20T08:30:34;5.75;4.25;2.25
72307;PMS5003;60257;42.638;23.376;2022-11-20T08:33:01;6.75;5.75;3.25
72307;PMS5003;60257;42.638;23.376;2022-11-20T08:35:32;5.75;5.25;3.25
72307;PMS5003;60257;42.638;23.376;2022-11-20T08:37:58;3.25;3.00;2.00
72307;PMS5003;60257;42.638;23.376;2022-11-20T08:40:24;4.25;4.25;3.25
72307;PMS5003;60257;42.638;23.376;2022-11-20T08:42:50;6.50;5.75;3.00
72307;PMS5003;60257;42.638;23.376;2022-11-20T08:45:17;5.00;4.00;1.00
72307;PMS5003;60257;42.638;23.376;2022-11-20T08:47:44;5.00;5.00;3.00
72307;PMS5003;60257;42.638;23.376;2022-11-20T08:50:10;5.25;3.50;2.00
72307;PMS5003;60257;42.638;23.376;2022-11-20T08:52:36;7.75;5.00;2.00
72307;PMS5003;60257;42.638;23.376;2022-11-20T08:55:03;3.75;3.75;2.50
72307;PMS5003;60257;42.638;23.376;2022-11-20T08:57:31;4.75;4.00;2.00
72307;PMS5003;60257;42.638;23.376;2022-11-20T08:59:57;3.25;3.25;2.25
72307;PMS5003;60257;42.638;23.376;2022-11-20T09:02:22;5.25;2.75;1.00
72307;PMS5003;60257;42.638;23.376;2022-11-20T09:04:48;4.25;3.00;1.00
72307;PMS5003;60257;42.638;23.376;2022-11-20T09:07:13;5.50;5.50;3.50
72307;PMS5003;60257;42.638;23.376;2022-11-20T09:09:39;7.75;5.25;2.00
72307;PMS5003;60257;42.638;23.376;2022-11-20T09:12:04;8.25;7.25;4.25
72307;PMS5003;60257;42.638;23.376;2022-11-20T09:14:30;5.25;4.25;2.00
72307;PMS5003;60257;42.638;23.376;2022-11-20T09:16:56;4.50;3.50;2.25
72307;PMS5003;60257;42.638;23.376;2022-11-20T09:19:23;6.00;6.00;3.50
72307;PMS5003;60257;42.638;23.376;2022-11-20T09:21:49;5.25;4.25;3.00
72307;PMS5003;60257;42.638;23.376;2022-11-20T09:24:14;7.50;7.25;4.75
72307;PMS5003;60257;42.638;23.376;2022-11-20T09:26:40;6.50;5.00;2.75
72307;PMS5003;60257;42.638;23.376;2022-11-20T09:29:05;8.75;8.75;5.00
72307;PMS5003;60257;42.638;23.376;2022-11-20T09:31:31;11.50;11.50;6.75
72307;PMS5003;60257;42.638;23.376;2022-11-20T09:33:56;7.50;7.50;4.50
72307;PMS5003;60257;42.638;23.376;2022-11-20T09:36:22;8.25;8.25;4.50
72307;PMS5003;60257;42.638;23.376;2022-11-20T09:38:47;5.75;5.75;4.00
72307;PMS5003;60257;42.638;23.376;2022-11-20T09:46:39;7.00;7.00;4.50
72307;PMS5003;60257;42.638;23.376;2022-11-20T09:51:57;7.00;5.75;4.00
72307;PMS5003;60257;42.638;23.376;2022-11-20T09:59:49;9.25;8.00;6.00
72307;PMS5003;60257;42.638;23.376;2022-11-20T10:04:57;6.25;6.25;3.00
72307;PMS5003;60257;42.638;23.376;2022-11-20T10:10:33;7.50;7.50;4.75
72307;PMS5003;60257;42.638;23.376;2022-11-20T10:16:19;5.25;5.25;3.50
72307;PMS5003;60257;42.638;23.376;2022-11-20T10:27:03;7.25;7.00;5.00
72307;PMS5003;60257;42.638;23.376;2022-11-20T10:29:58;8.75;7.00;5.75
72307;PMS5003;60257;42.638;23.376;2022-11-20T10:32:35;9.75;9.75;6.25
72307;PMS5003;60257;42.638;23.376;2022-11-20T10:37:44;5.50;5.50;3.00
72307;PMS5003;60257;42.638;23.376;2022-11-20T10:40:22;10.50;9.25;6.50
72307;PMS5003;60257;42.638;23.376;2022-11-20T10:42:56;12.25;10.75;5.75
72307;PMS5003;60257;42.638;23.376;2022-11-20T10:47:53;11.75;10.75;6.75
72307;PMS5003;60257;42.638;23.376;2022-11-20T10:50:48;9.75;8.50;5.75
72307;PMS5003;60257;42.638;23.376;2022-11-20T11:01:40;8.50;8.25;5.00
72307;PMS5003;60257;42.638;23.376;2022-11-20T11:04:21;9.00;8.75;6.00
72307;PMS5003;60257;42.638;23.376;2022-11-20T11:09:44;7.00;7.00;4.50
72307;PMS5003;60257;42.638;23.376;2022-11-20T11:12:17;6.25;6.25;4.25
72307;PMS5003;60257;42.638;23.376;2022-11-20T11:14:48;9.00;9.00;5.25
72307;PMS5003;60257;42.638;23.376;2022-11-20T11:17:28;9.75;9.75;7.75
72307;PMS5003;60257;42.638;23.376;2022-11-20T11:20:28;10.00;9.75;7.75
72307;PMS5003;60257;42.638;23.376;2022-11-20T11:22:49;10.00;7.25;4.00
72307;PMS5003;60257;42.638;23.376;2022-11-20T11:25:32;9.00;8.00;3.50
72307;PMS5003;60257;42.638;23.376;2022-11-20T11:28:03;9.00;9.00;5.75
72307;PMS5003;60257;42.638;23.376;2022-11-20T11:30:45;11.50;9.25;6.00
72307;PMS5003;60257;42.638;23.376;2022-11-20T11:33:27;2.75;2.75;2.00
72307;PMS5003;60257;42.638;23.376;2022-11-20T11:38:43;2.25;2.25;2.00
72307;PMS5003;60257;42.638;23.376;2022-11-20T11:41:16;3.75;2.00;1.25
72307;PMS5003;60257;42.638;23.376;2022-11-20T11:43:53;0.00;0.00;0.00
72307;PMS5003;60257;42.638;23.376;2022-11-20T11:46:39;1.00;1.00;1.00
72307;PMS5003;60257;42.638;23.376;2022-11-20T11:49:15;1.25;0.75;0.00
72307;PMS5003;60257;42.638;23.376;2022-11-20T11:57:12;2.00;2.00;1.00
72307;PMS5003;60257;42.638;23.376;2022-11-20T11:59:59;2.00;2.00;0.25
72307;PMS5003;60257;42.638;23.376;2022-11-20T12:10:56;1.25;1.25;0.00
72307;PMS5003;60257;42.638;23.376;2022-11-20T12:15:57;0.00;0.00;0.00
72307;PMS5003;60257;42.638;23.376;2022-11-20T12:18:23;0.50;0.50;0.00
72307;PMS5003;60257;42.638;23.376;2022-11-20T12:20:55;1.00;0.25;0.00
72307;PMS5003;60257;42.638;23.376;2022-11-20T12:23:39;1.50;1.00;0.00
72307;PMS5003;60257;42.638;23.376;2022-11-20T12:32:04;1.00;0.50;0.00
72307;PMS5003;60257;42.638;23.376;2022-11-20T12:37:44;0.00;0.00;0.00
72307;PMS5003;60257;42.638;23.376;2022-11-20T12:43:59;0.50;0.50;0.00
72307;PMS5003;60257;42.638;23.376;2022-11-20T12:46:42;1.25;1.25;0.00
72307;PMS5003;60257;42.638;23.376;2022-11-20T12:52:10;1.00;1.00;0.00
72307;PMS5003;60257;42.638;23.376;2022-11-20T12:54:53;5.00;3.25;1.00
72307;PMS5003;60257;42.638;23.376;2022-11-20T13:00:28;3.50;2.00;1.00
72307;PMS5003;60257;42.638;23.376;2022-11-20T13:06:03;3.00;3.00;2.00
72307;PMS5003;60257;42.638;23.376;2022-11-20T13:08:37;4.00;4.00;2.25
72307;PMS5003;60257;42.638;23.376;2022-11-20T13:11:10;3.00;3.00;1.25
72307;PMS5003;60257;42.638;23.376;2022-11-20T13:19:02;5.50;5.50;3.00
72307;PMS5003;60257;42.638;23.376;2022-11-20T13:21:36;5.00;5.00;3.00
72307;PMS5003;60257;42.638;23.376;2022-11-20T13:24:05;4.00;3.50;2.00
72307;PMS5003;60257;42.638;23.376;2022-11-20T13:26:32;6.75;4.00;2.00
72307;PMS5003;60257;42.638;23.376;2022-11-20T13:29:17;6.00;6.00;2.00
72307;PMS5003;60257;42.638;23.376;2022-11-20T13:31:44;5.50;5.50;4.00
72307;PMS5003;60257;42.638;23.376;2022-11-20T13:34:12;6.75;6.75;3.25
72307;PMS5003;60257;42.638;23.376;2022-11-20T13:36:58;5.00;5.00;2.00
72307;PMS5003;60257;42.638;23.376;2022-11-20T13:39:35;3.75;3.00;2.00
72307;PMS5003;60257;42.638;23.376;2022-11-20T13:47:20;9.75;6.25;4.00
72307;PMS5003;60257;42.638;23.376;2022-11-20T13:49:47;6.00;6.00;3.00
72307;PMS5003;60257;42.638;23.376;2022-11-20T14:00:57;6.75;4.50;3.25
72307;PMS5003;60257;42.638;23.376;2022-11-20T14:03:33;6.25;6.25;3.75
72307;PMS5003;60257;42.638;23.376;2022-11-20T14:06:04;7.25;6.00;3.50
72307;PMS5003;60257;42.638;23.376;2022-11-20T14:11:06;8.25;8.00;4.25
72307;PMS5003;60257;42.638;23.376;2022-11-20T14:13:39;6.75;5.00;3.00
72307;PMS5003;60257;42.638;23.376;2022-11-20T14:16:19;11.00;10.25;5.75
72307;PMS5003;60257;42.638;23.376;2022-11-20T14:18:45;7.00;7.00;4.00
72307;PMS5003;60257;42.638;23.376;2022-11-20T14:21:10;7.00;6.00;4.25
72307;PMS5003;60257;42.638;23.376;2022-11-20T14:23:36;6.00;6.00;4.00
72307;PMS5003;60257;42.638;23.376;2022-11-20T14:26:01;10.75;10.75;6.00
72307;PMS5003;60257;42.638;23.376;2022-11-20T14:28:30;11.75;8.75;6.00
72307;PMS5003;60257;42.638;23.376;2022-11-20T14:30:56;7.25;7.25;4.00
72307;PMS5003;60257;42.638;23.376;2022-11-20T14:33:23;8.00;7.00;5.00
72307;PMS5003;60257;42.638;23.376;2022-11-20T14:35:54;12.25;12.00;7.75
72307;PMS5003;60257;42.638;23.376;2022-11-20T14:38:28;15.75;13.25;7.75
72307;PMS5003;60257;42.638;23.376;2022-11-20T14:41:14;8.25;8.00;4.00
72307;PMS5003;60257;42.638;23.376;2022-11-20T14:43:46;10.25;10.25;6.00
72307;PMS5003;60257;42.638;23.376;2022-11-20T14:46:15;9.00;9.00;5.00
72307;PMS5003;60257;42.638;23.376;2022-11-20T14:48:48;11.75;11.00;6.00
72307;PMS5003;60257;42.638;23.376;2022-11-20T14:51:32;17.25;13.00;7.00
72307;PMS5003;60257;42.638;23.376;2022-11-20T14:54:19;5.50;5.00;2.25
72307;PMS5003;60257;42.638;23.376;2022-11-20T14:59:48;15.75;13.25;7.50
72307;PMS5003;60257;42.638;23.376;2022-11-20T15:02:14;13.25;13.25;7.50
72307;PMS5003;60257;42.638;23.376;2022-11-20T15:04:46;10.00;9.75;7.00
72307;PMS5003;60257;42.638;23.376;2022-11-20T15:07:25;13.25;13.25;10.00
72307;PMS5003;60257;42.638;23.376;2022-11-20T15:12:31;37.67;35.00;20.33
72307;PMS5003;60257;42.638;23.376;2022-11-20T15:15:00;20.00;15.33;9.00
72307;PMS5003;60257;42.638;23.376;2022-11-20T15:17:27;18.00;18.00;13.00
72307;PMS5003;60257;42.638;23.376;2022-11-20T15:19:53;17.00;17.00;11.33
72307;PMS5003;60257;42.638;23.376;2022-11-20T15:22:20;17.50;15.25;9.50
72307;PMS5003;60257;42.638;23.376;2022-11-20T15:24:45;8.00;8.00;8.00
72307;PMS5003;60257;42.638;23.376;2022-11-20T15:27:11;13.00;9.50;6.00
72307;PMS5003;60257;42.638;23.376;2022-11-20T15:29:37;16.25;12.75;8.25
72307;PMS5003;60257;42.638;23.376;2022-11-20T15:32:02;14.75;14.25;9.75
72307;PMS5003;60257;42.638;23.376;2022-11-20T15:34:28;20.75;16.25;9.00
72307;PMS5003;60257;42.638;23.376;2022-11-20T15:36:54;16.25;14.75;8.75
72307;PMS5003;60257;42.638;23.376;2022-11-20T15:39:19;11.75;10.75;5.50
72307;PMS5003;60257;42.638;23.376;2022-11-20T15:41:45;8.00;7.50;4.00
72307;PMS5003;60257;42.638;23.376;2022-11-20T15:44:11;7.25;7.25;4.75
72307;PMS5003;60257;42.638;23.376;2022-11-20T15:46:38;5.25;4.00;3.00
72307;PMS5003;60257;42.638;23.376;2022-11-20T15:49:14;6.00;6.00;3.00
72307;PMS5003;60257;42.638;23.376;2022-11-20T15:51:43;8.50;7.00;6.00
72307;PMS5003;60257;42.638;23.376;2022-11-20T15:54:12;6.50;6.50;3.00
72307;PMS5003;60257;42.638;23.376;2022-11-20T15:56:45;5.50;5.50;3.00
72307;PMS5003;60257;42.638;23.376;2022-11-20T15:59:12;4.00;3.25;1.00
72307;PMS5003;60257;42.638;23.376;2022-11-20T16:01:39;4.75;4.75;3.00
72307;PMS5003;60257;42.638;23.376;2022-11-20T16:04:05;3.00;3.00;1.00
72307;PMS5003;60257;42.638;23.376;2022-11-20T16:06:34;6.00;6.00;2.75
72307;PMS5003;60257;42.638;23.376;2022-11-20T16:09:00;4.00;4.00;1.00
72307;PMS5003;60257;42.638;23.376;2022-11-20T16:11:25;6.00;6.00;3.00
72307;PMS5003;60257;42.638;23.376;2022-11-20T16:13:51;6.00;5.00;2.25
72307;PMS5003;60257;42.638;23.376;2022-11-20T16:16:36;3.00;3.00;2.00
72307;PMS5003;60257;42.638;23.376;2022-11-20T16:19:02;4.00;4.00;2.75